Time;durP1;ratioP1;P1;durP2;ratioP2;P2;SDS_P1;SDS_P2;PMS_P1;PMS_P2;Temp;Humidity;BMP_temperature;BMP_pressure;BME280_temperature;BME280_humidity;BME280_pressure;Samples;Min_cycle;Max_cycle;Signal;HPM_P1;HPM_P2
2022/03/23 00:01:07;;;;;;;66.13;36.42;;;7.60;99.90;;;;;;5053408;28;20045;-72
2022/03/23 00:03:35;;;;;;;55.88;39.15;;;7.70;99.90;;;;;;5055025;28;20434;-72
2022/03/23 00:06:01;;;;;;;53.70;35.45;;;7.70;99.90;;;;;;5052773;28;20049;-72
2022/03/23 00:08:26;;;;;;;53.90;37.10;;;7.60;99.90;;;;;;5054763;28;20057;-72
2022/03/23 00:10:52;;;;;;;54.22;37.92;;;7.60;99.90;;;;;;5051703;28;20067;-72
2022/03/23 00:13:17;;;;;;;55.47;37.95;;;7.60;99.90;;;;;;5052945;28;20052;-73
2022/03/23 00:15:43;;;;;;;54.60;37.25;;;7.60;99.90;;;;;;5053233;28;20041;-72
2022/03/23 00:18:09;;;;;;;52.75;37.60;;;7.60;99.90;;;;;;5053777;28;20080;-72
2022/03/23 00:20:34;;;;;;;51.15;35.58;;;7.60;99.90;;;;;;5054135;28;20091;-72
2022/03/23 00:23:00;;;;;;;53.63;36.75;;;7.60;99.90;;;;;;5053138;28;20502;-72
2022/03/23 00:25:26;;;;;;;55.35;38.30;;;7.60;99.90;;;;;;5052721;28;20391;-72
2022/03/23 00:27:52;;;;;;;49.03;35.00;;;7.60;99.90;;;;;;5053472;28;20057;-72
2022/03/23 00:30:18;;;;;;;51.20;35.10;;;7.60;99.90;;;;;;5054326;28;20055;-72
2022/03/23 00:32:43;;;;;;;48.53;34.70;;;7.50;99.90;;;;;;5053651;28;20067;-72
2022/03/23 00:35:09;;;;;;;47.42;34.83;;;7.50;99.90;;;;;;5054135;28;20084;-72
2022/03/23 00:37:36;;;;;;;48.30;34.28;;;7.40;99.90;;;;;;5054574;28;20415;-72
2022/03/23 00:40:03;;;;;;;50.85;34.20;;;7.40;99.90;;;;;;5053653;28;20084;-72
2022/03/23 00:42:28;;;;;;;50.50;34.40;;;7.40;99.90;;;;;;5054184;28;20420;-72
2022/03/23 00:44:54;;;;;;;49.20;34.35;;;7.30;99.90;;;;;;5054273;28;20052;-72
2022/03/23 00:47:20;;;;;;;49.45;34.75;;;7.30;99.90;;;;;;5051954;28;20466;-72
2022/03/23 00:49:45;;;;;;;51.25;34.20;;;7.30;99.90;;;;;;5052816;28;20499;-72
2022/03/23 00:52:11;;;;;;;51.58;35.15;;;7.20;99.90;;;;;;5052576;28;20093;-72
2022/03/23 00:54:37;;;;;;;46.17;33.35;;;7.20;99.90;;;;;;5051955;28;20057;-72
2022/03/23 00:57:04;;;;;;;45.17;33.50;;;7.10;99.90;;;;;;5052843;28;20384;-72
2022/03/23 00:59:30;;;;;;;49.75;32.97;;;7.10;99.90;;;;;;5052540;28;20060;-72
2022/03/23 01:01:56;;;;;;;46.10;32.47;;;7.10;99.90;;;;;;5053051;28;20036;-72
2022/03/23 01:04:23;;;;;;;48.97;35.05;;;7.00;99.90;;;;;;5052504;28;20053;-72
2022/03/23 01:06:49;;;;;;;48.63;34.90;;;7.00;99.90;;;;;;5053723;28;20052;-72
2022/03/23 01:09:15;;;;;;;55.55;33.22;;;7.00;99.90;;;;;;5053115;28;20037;-72
2022/03/23 01:11:41;;;;;;;51.45;35.15;;;7.00;99.90;;;;;;5053742;28;20052;-72
2022/03/23 01:14:07;;;;;;;47.03;34.13;;;6.90;99.90;;;;;;5053445;28;20068;-72
2022/03/23 01:16:33;;;;;;;46.22;32.58;;;6.90;99.90;;;;;;5051964;28;20052;-72
2022/03/23 01:19:00;;;;;;;54.58;32.08;;;6.90;99.90;;;;;;5052196;28;20041;-73
2022/03/23 01:21:26;;;;;;;52.42;35.80;;;6.80;99.90;;;;;;5052869;28;20049;-72
2022/03/23 01:23:51;;;;;;;49.30;33.72;;;6.80;99.90;;;;;;5053543;28;20064;-72
2022/03/23 01:26:17;;;;;;;43.28;30.83;;;6.70;99.90;;;;;;5052295;28;20045;-72
2022/03/23 01:28:44;;;;;;;44.28;32.55;;;6.60;99.90;;;;;;5052565;28;20053;-72
2022/03/23 01:31:10;;;;;;;47.95;33.83;;;6.60;99.90;;;;;;5051926;28;20048;-72
2022/03/23 01:33:36;;;;;;;50.25;35.60;;;6.60;99.90;;;;;;5052183;28;20049;-72
2022/03/23 01:36:02;;;;;;;54.72;35.50;;;6.50;99.90;;;;;;5052590;28;20063;-72
2022/03/23 01:38:28;;;;;;;48.35;33.47;;;6.50;99.90;;;;;;5052139;28;20098;-72
2022/03/23 01:40:54;;;;;;;48.25;34.03;;;6.40;99.90;;;;;;5053103;28;20587;-72
2022/03/23 01:43:19;;;;;;;57.97;35.90;;;6.40;99.90;;;;;;5052303;28;20116;-72
2022/03/23 01:45:45;;;;;;;48.80;33.22;;;6.40;99.90;;;;;;5051860;28;20044;-72
2022/03/23 01:48:10;;;;;;;48.17;34.55;;;6.30;99.90;;;;;;5052945;28;20052;-73
2022/03/23 01:50:36;;;;;;;56.67;36.78;;;6.30;99.90;;;;;;5052418;28;20141;-73
2022/03/23 01:53:02;;;;;;;50.53;36.10;;;6.30;99.90;;;;;;5044943;28;20057;-72
2022/03/23 01:55:28;;;;;;;48.00;35.22;;;6.20;99.90;;;;;;5045290;28;20041;-73
2022/03/23 01:57:54;;;;;;;54.70;35.20;;;6.20;99.90;;;;;;5039120;28;20155;-72
2022/03/23 02:00:20;;;;;;;51.47;35.50;;;6.20;99.90;;;;;;5038464;28;20041;-72
2022/03/23 02:02:46;;;;;;;54.72;37.30;;;6.20;99.90;;;;;;5051870;28;20479;-72
2022/03/23 02:05:13;;;;;;;56.97;35.03;;;6.20;99.90;;;;;;5051043;28;20132;-73
2022/03/23 02:07:39;;;;;;;54.30;35.50;;;6.20;99.90;;;;;;5051662;28;20045;-73
2022/03/23 02:10:06;;;;;;;56.40;35.22;;;6.10;99.90;;;;;;5051607;28;20551;-72
2022/03/23 02:12:32;;;;;;;53.47;37.30;;;6.10;99.90;;;;;;5050881;28;20048;-73
2022/03/23 02:14:58;;;;;;;51.55;36.10;;;6.10;99.90;;;;;;5052536;28;20052;-72
2022/03/23 02:17:25;;;;;;;46.28;32.95;;;6.10;99.90;;;;;;5052393;28;20431;-72
2022/03/23 02:19:51;;;;;;;76.57;33.63;;;6.00;99.90;;;;;;5052430;28;20041;-72
2022/03/23 02:22:16;;;;;;;51.92;35.15;;;5.90;99.90;;;;;;5052411;28;20482;-72
2022/03/23 02:24:46;;;;;;;46.42;32.72;;;5.90;99.90;;;;;;5051850;28;20060;-72
2022/03/23 02:27:12;;;;;;;49.17;33.05;;;5.90;99.90;;;;;;5051167;28;20049;-72
2022/03/23 02:29:38;;;;;;;54.67;35.22;;;5.80;99.90;;;;;;5050826;28;20457;-72
2022/03/23 02:32:05;;;;;;;50.25;35.25;;;5.80;99.90;;;;;;5050328;28;20040;-72
2022/03/23 02:34:31;;;;;;;51.08;33.35;;;5.80;99.90;;;;;;5050600;28;20848;-73
2022/03/23 02:36:58;;;;;;;52.63;34.83;;;5.70;99.90;;;;;;5052444;28;20045;-72
2022/03/23 02:39:25;;;;;;;50.20;34.17;;;5.70;99.90;;;;;;5050483;28;20056;-72
2022/03/23 02:41:53;;;;;;;52.22;36.33;;;5.70;99.90;;;;;;5052125;28;20040;-72
2022/03/23 02:44:20;;;;;;;50.30;33.60;;;5.70;99.90;;;;;;5052088;28;20151;-72
2022/03/23 02:46:46;;;;;;;50.30;34.97;;;5.60;99.90;;;;;;5051638;28;20055;-73
2022/03/23 02:49:20;;;;;;;50.38;35.63;;;5.60;99.90;;;;;;5052331;28;20128;-73
2022/03/23 02:51:47;;;;;;;51.38;34.47;;;5.60;99.90;;;;;;5045855;28;20048;-72
2022/03/23 03:03:02;;;;;;;52.17;34.40;;;5.50;99.90;;;;;;5046029;28;20053;-72
2022/03/23 03:05:28;;;;;;;50.75;33.15;;;5.50;99.90;;;;;;5037541;28;20077;-71
2022/03/23 03:10:37;;;;;;;51.47;35.13;;;5.50;99.90;;;;;;5030837;28;20073;-70
2022/03/23 03:13:03;;;;;;;50.90;34.17;;;5.50;99.90;;;;;;5037248;28;20483;-70
2022/03/23 03:15:29;;;;;;;49.20;35.17;;;5.40;99.90;;;;;;5043348;28;20049;-71
2022/03/23 03:17:57;;;;;;;49.97;34.80;;;5.40;99.90;;;;;;5045907;28;20049;-71
2022/03/23 03:20:23;;;;;;;55.22;35.90;;;5.40;99.90;;;;;;5049915;28;20150;-71
2022/03/23 03:22:49;;;;;;;53.35;35.40;;;5.40;99.90;;;;;;5031297;28;20038;-71
2022/03/23 03:25:16;;;;;;;51.47;34.20;;;5.40;99.90;;;;;;5031953;28;20055;-71
2022/03/23 03:27:43;;;;;;;57.05;37.33;;;5.40;99.90;;;;;;5030658;28;20049;-71
2022/03/23 03:30:11;;;;;;;54.78;34.08;;;5.30;99.90;;;;;;5029580;28;20562;-71
2022/03/23 03:32:37;;;;;;;50.20;35.67;;;5.30;99.90;;;;;;5030871;28;20045;-71
2022/03/23 03:35:04;;;;;;;55.40;35.40;;;5.30;99.90;;;;;;5031199;28;20064;-71
2022/03/23 03:37:30;;;;;;;54.30;35.20;;;5.30;99.90;;;;;;5030625;28;20048;-71
2022/03/23 03:39:55;;;;;;;53.40;35.58;;;5.30;99.90;;;;;;5031801;28;20042;-71
2022/03/23 03:42:21;;;;;;;70.00;35.83;;;5.30;99.90;;;;;;5031026;28;20061;-71
2022/03/23 03:44:50;;;;;;;56.40;35.67;;;5.30;99.90;;;;;;5030622;28;20057;-71
2022/03/23 03:47:16;;;;;;;52.03;36.42;;;5.30;99.90;;;;;;5035535;28;20079;-71
2022/03/23 03:49:42;;;;;;;47.60;33.88;;;5.30;99.90;;;;;;5033400;28;20049;-71
2022/03/23 03:52:08;;;;;;;53.20;33.22;;;5.20;99.90;;;;;;5033961;28;20044;-71
2022/03/23 03:54:33;;;;;;;55.15;37.15;;;5.20;99.90;;;;;;5035115;28;20049;-72
2022/03/23 03:56:59;;;;;;;53.72;35.75;;;5.10;99.90;;;;;;5033077;28;20132;-71
2022/03/23 03:59:24;;;;;;;53.90;37.33;;;5.10;99.90;;;;;;5033983;28;20196;-71
2022/03/23 04:01:50;;;;;;;62.33;39.47;;;5.10;99.90;;;;;;5033803;28;20049;-71
2022/03/23 04:04:16;;;;;;;62.25;39.35;;;5.10;99.90;;;;;;5033224;28;20049;-71
2022/03/23 04:06:42;;;;;;;60.75;40.10;;;5.10;99.90;;;;;;5033966;28;20049;-71
2022/03/23 04:09:07;;;;;;;56.10;37.25;;;5.10;99.90;;;;;;5033955;28;20491;-71
2022/03/23 04:11:34;;;;;;;55.97;35.20;;;5.10;99.90;;;;;;5034174;28;20103;-71
2022/03/23 04:14:00;;;;;;;53.42;34.55;;;5.00;99.90;;;;;;5034697;28;20041;-71
2022/03/23 04:16:26;;;;;;;51.65;34.00;;;5.00;99.90;;;;;;5033481;28;20087;-71
2022/03/23 04:18:51;;;;;;;49.15;33.95;;;4.90;99.90;;;;;;5033052;28;20053;-71
2022/03/23 04:21:17;;;;;;;55.83;35.58;;;4.90;99.90;;;;;;5034867;28;20046;-71
2022/03/23 04:23:43;;;;;;;46.75;31.17;;;4.90;99.90;;;;;;5034700;28;20084;-71
2022/03/23 04:26:08;;;;;;;54.40;33.83;;;4.90;99.90;;;;;;5033894;28;20491;-71
2022/03/23 04:28:34;;;;;;;53.58;33.75;;;4.90;99.90;;;;;;5034537;28;20061;-71
2022/03/23 04:31:01;;;;;;;51.85;33.22;;;4.80;99.90;;;;;;5033275;28;20058;-71
2022/03/23 04:33:27;;;;;;;58.20;34.72;;;4.80;99.90;;;;;;5033885;28;20045;-71
2022/03/23 04:35:53;;;;;;;53.33;37.15;;;4.80;99.90;;;;;;5034547;28;20053;-71
2022/03/23 04:38:19;;;;;;;51.90;34.08;;;4.70;99.90;;;;;;5032382;28;20049;-71
2022/03/23 04:40:45;;;;;;;49.30;33.38;;;4.70;99.90;;;;;;5034321;28;20068;-72
2022/03/23 04:43:11;;;;;;;48.70;32.05;;;4.70;99.90;;;;;;5034493;28;20549;-71
2022/03/23 04:45:37;;;;;;;53.47;35.38;;;4.60;99.90;;;;;;5032306;28;20162;-71
2022/03/23 04:48:03;;;;;;;52.33;34.55;;;4.60;99.90;;;;;;5034386;28;20072;-71
2022/03/23 04:50:29;;;;;;;47.28;32.30;;;4.60;99.90;;;;;;5032914;28;20049;-71
2022/03/23 04:52:55;;;;;;;41.63;31.30;;;4.60;99.90;;;;;;5033396;28;20056;-71
2022/03/23 04:55:20;;;;;;;50.40;32.42;;;4.60;99.90;;;;;;5032666;28;20041;-71
2022/03/23 04:57:47;;;;;;;52.72;33.45;;;4.60;99.90;;;;;;5033870;28;20172;-71
2022/03/23 05:00:15;;;;;;;47.63;32.63;;;4.60;99.90;;;;;;5033493;28;20049;-71
2022/03/23 05:02:42;;;;;;;47.08;33.38;;;4.60;99.90;;;;;;5032832;28;20050;-71
2022/03/23 05:05:10;;;;;;;47.88;32.75;;;4.60;99.90;;;;;;5032692;28;20045;-71
2022/03/23 05:07:36;;;;;;;56.13;32.88;;;4.60;99.90;;;;;;5032132;28;20052;-71
2022/03/23 05:10:02;;;;;;;47.00;31.42;;;4.60;99.90;;;;;;5042513;28;20053;-71
2022/03/23 05:12:28;;;;;;;50.90;31.90;;;4.50;99.90;;;;;;5038753;28;20044;-71
2022/03/23 05:14:54;;;;;;;53.30;32.00;;;4.50;99.90;;;;;;5031534;28;20053;-71
2022/03/23 05:17:19;;;;;;;43.75;30.20;;;4.50;99.90;;;;;;5032568;28;20396;-71
2022/03/23 05:19:45;;;;;;;46.85;31.05;;;4.50;99.90;;;;;;5033753;28;20042;-71
2022/03/23 05:22:11;;;;;;;45.05;29.60;;;4.50;99.90;;;;;;5032831;28;20091;-71
2022/03/23 05:24:38;;;;;;;45.20;31.58;;;4.50;99.90;;;;;;5033426;28;20128;-71
2022/03/23 05:27:04;;;;;;;44.75;29.98;;;4.40;99.90;;;;;;5033943;28;20056;-71
2022/03/23 05:29:29;;;;;;;48.95;32.25;;;4.40;99.90;;;;;;5031285;28;20488;-71
2022/03/23 05:31:55;;;;;;;45.28;29.77;;;4.40;99.90;;;;;;5033336;28;20099;-71
2022/03/23 05:34:20;;;;;;;50.05;31.83;;;4.40;99.90;;;;;;5035910;28;20124;-71
2022/03/23 05:36:46;;;;;;;49.70;30.67;;;4.40;99.90;;;;;;5045152;28;20049;-71
2022/03/23 05:39:12;;;;;;;49.70;31.98;;;4.40;99.90;;;;;;5048511;28;20053;-71
2022/03/23 05:41:38;;;;;;;50.60;33.42;;;4.30;99.90;;;;;;5031420;28;20045;-71
2022/03/23 05:44:04;;;;;;;53.90;34.92;;;4.30;99.90;;;;;;5032091;28;20056;-71
2022/03/23 05:46:30;;;;;;;60.75;39.60;;;4.40;99.90;;;;;;5031850;28;20038;-71
2022/03/23 05:48:56;;;;;;;57.80;36.20;;;4.40;99.90;;;;;;5032189;28;20052;-71
2022/03/23 05:51:23;;;;;;;56.47;35.80;;;4.40;99.90;;;;;;5047189;28;20044;-71
2022/03/23 05:53:49;;;;;;;54.88;34.85;;;4.50;99.90;;;;;;5034751;28;20053;-71
2022/03/23 05:56:15;;;;;;;55.53;36.53;;;4.50;99.90;;;;;;5032468;28;20045;-71
2022/03/23 05:58:40;;;;;;;54.20;34.63;;;4.50;99.90;;;;;;5033041;28;20038;-71
2022/03/23 06:01:06;;;;;;;55.20;35.78;;;4.50;99.90;;;;;;5052849;28;20045;-71
2022/03/23 06:03:31;;;;;;;58.97;38.20;;;4.50;99.90;;;;;;5050670;28;20446;-71
2022/03/23 06:05:57;;;;;;;60.85;39.38;;;4.60;99.90;;;;;;5051653;28;20094;-71
2022/03/23 06:08:23;;;;;;;57.05;38.13;;;4.70;99.90;;;;;;5050868;28;20051;-71
2022/03/23 06:10:49;;;;;;;59.95;36.85;;;4.70;99.90;;;;;;5052091;28;20056;-71
2022/03/23 06:13:14;;;;;;;56.55;36.40;;;4.80;99.90;;;;;;5042741;28;20049;-71
2022/03/23 06:15:40;;;;;;;62.72;39.20;;;4.80;99.90;;;;;;5039661;28;20099;-72
2022/03/23 06:18:06;;;;;;;56.90;37.00;;;4.80;99.90;;;;;;5031844;28;20052;-71
2022/03/23 06:20:31;;;;;;;59.15;37.55;;;4.90;99.90;;;;;;5039829;28;20051;-72
2022/03/23 06:22:57;;;;;;;53.92;36.53;;;4.90;99.90;;;;;;5047618;28;20073;-72
2022/03/23 06:25:24;;;;;;;50.88;34.97;;;5.00;99.90;;;;;;5038517;28;20049;-72
2022/03/23 06:27:50;;;;;;;51.92;35.47;;;5.10;99.90;;;;;;5043226;28;20052;-70
2022/03/23 06:30:16;;;;;;;52.17;34.47;;;5.10;99.90;;;;;;5032508;28;20057;-70
2022/03/23 06:32:41;;;;;;;61.55;37.13;;;5.20;99.90;;;;;;5032797;28;20046;-70
2022/03/23 06:35:08;;;;;;;51.33;33.75;;;5.20;99.90;;;;;;5031166;28;20087;-69
2022/03/23 06:37:34;;;;;;;52.10;35.88;;;5.30;99.90;;;;;;5032224;28;20053;-71
2022/03/23 06:40:00;;;;;;;58.13;36.55;;;5.30;99.90;;;;;;5030320;28;20049;-70
2022/03/23 06:42:27;;;;;;;54.05;33.22;;;5.40;99.90;;;;;;5034077;28;20056;-71
2022/03/23 06:44:53;;;;;;;57.00;35.83;;;5.40;99.90;;;;;;5043579;28;20077;-70
2022/03/23 06:47:18;;;;;;;52.45;35.30;;;5.50;99.90;;;;;;5032378;28;20065;-71
2022/03/23 06:49:44;;;;;;;53.53;36.13;;;5.60;99.90;;;;;;5033685;28;20137;-71
2022/03/23 06:52:10;;;;;;;59.45;38.45;;;5.70;99.90;;;;;;5036823;28;20152;-70
2022/03/23 06:54:35;;;;;;;58.40;37.03;;;5.80;99.90;;;;;;5036018;28;20073;-71
2022/03/23 06:57:01;;;;;;;60.55;39.72;;;5.90;99.90;;;;;;5031986;28;20107;-71
2022/03/23 06:59:27;;;;;;;69.38;43.95;;;6.00;99.90;;;;;;5030775;28;20046;-71
2022/03/23 07:01:52;;;;;;;69.53;45.42;;;6.10;99.90;;;;;;5035364;28;20100;-70
2022/03/23 07:04:18;;;;;;;69.68;46.50;;;6.30;99.90;;;;;;5042974;28;20033;-70
2022/03/23 07:06:43;;;;;;;66.88;42.20;;;6.40;99.90;;;;;;5028963;28;20053;-70
2022/03/23 07:11:54;;;;;;;66.57;43.97;;;6.70;99.90;;;;;;5032611;28;20049;-71
2022/03/23 07:14:21;;;;;;;69.93;45.20;;;6.80;99.90;;;;;;5042936;28;20048;-72
2022/03/23 07:16:46;;;;;;;73.78;46.72;;;7.00;99.90;;;;;;5032164;28;20033;-71
2022/03/23 07:19:13;;;;;;;75.25;48.67;;;7.10;99.90;;;;;;5039582;28;20072;-71
2022/03/23 07:21:39;;;;;;;76.18;46.13;;;7.20;99.90;;;;;;5041274;28;20041;-71
2022/03/23 07:24:05;;;;;;;66.03;44.00;;;7.30;99.90;;;;;;5040816;28;20041;-71
2022/03/23 07:26:31;;;;;;;75.68;49.50;;;7.40;99.90;;;;;;5041652;28;20454;-71
2022/03/23 07:28:57;;;;;;;66.45;44.35;;;7.50;99.90;;;;;;5036808;28;20057;-71
2022/03/23 07:31:22;;;;;;;65.07;45.13;;;7.70;99.90;;;;;;5046350;28;20136;-71
2022/03/23 07:33:50;;;;;;;65.28;44.28;;;7.80;99.90;;;;;;5036201;28;20506;-72
2022/03/23 07:36:15;;;;;;;67.45;43.53;;;7.90;99.90;;;;;;5035078;28;20462;-71
2022/03/23 07:38:41;;;;;;;62.40;41.95;;;8.00;99.90;;;;;;5034428;28;20491;-71
2022/03/23 07:41:07;;;;;;;60.78;41.03;;;8.10;99.90;;;;;;5040154;28;20057;-71
2022/03/23 07:43:32;;;;;;;56.97;40.15;;;8.20;99.90;;;;;;5036665;28;20038;-71
2022/03/23 07:45:58;;;;;;;58.58;40.22;;;8.30;99.90;;;;;;5035521;28;20076;-71
2022/03/23 07:48:24;;;;;;;55.67;39.35;;;8.50;99.90;;;;;;5046487;28;20072;-70
2022/03/23 07:50:53;;;;;;;65.40;41.00;;;8.60;99.90;;;;;;5039794;28;20064;-71
2022/03/23 07:53:19;;;;;;;56.72;37.75;;;8.70;99.90;;;;;;5046611;28;20084;-71
2022/03/23 07:55:45;;;;;;;57.00;38.85;;;8.80;99.90;;;;;;5054253;28;20041;-71
2022/03/23 07:58:11;;;;;;;58.65;38.33;;;9.00;99.90;;;;;;5055194;28;20102;-72
2022/03/23 08:00:38;;;;;;;55.08;38.13;;;9.10;99.90;;;;;;5054812;28;20095;-70
2022/03/23 08:03:05;;;;;;;53.33;36.95;;;9.20;99.90;;;;;;5051217;28;20037;-71
2022/03/23 08:05:32;;;;;;;60.15;38.10;;;9.30;99.90;;;;;;5041946;28;20107;-71
2022/03/23 08:07:58;;;;;;;61.63;37.72;;;9.40;99.90;;;;;;5043305;28;20049;-72
2022/03/23 08:10:23;;;;;;;56.05;37.85;;;9.50;99.90;;;;;;5042722;28;20061;-71
2022/03/23 08:12:51;;;;;;;52.90;37.70;;;9.60;99.90;;;;;;5039252;28;20068;-71
2022/03/23 08:15:16;;;;;;;52.70;36.05;;;9.80;99.90;;;;;;5037510;28;20053;-72
2022/03/23 08:17:42;;;;;;;52.55;37.83;;;9.90;99.90;;;;;;5041884;28;20465;-71
2022/03/23 08:22:55;;;;;;;53.50;39.38;;;10.10;99.90;;;;;;5049042;28;20050;-71
2022/03/23 08:25:21;;;;;;;54.70;37.58;;;10.30;99.90;;;;;;5033185;28;20073;-72
2022/03/23 08:27:47;;;;;;;54.33;35.75;;;10.40;99.90;;;;;;5034636;28;20475;-71
2022/03/23 08:30:13;;;;;;;51.50;35.30;;;10.60;99.90;;;;;;5034037;28;20073;-72
2022/03/23 08:32:39;;;;;;;46.53;34.53;;;10.70;99.90;;;;;;5035929;28;20056;-71
2022/03/23 08:35:05;;;;;;;53.28;33.13;;;10.80;99.90;;;;;;5038199;28;20412;-71
2022/03/23 08:37:30;;;;;;;50.65;33.58;;;11.00;99.90;;;;;;5038645;28;20447;-72
2022/03/23 08:39:56;;;;;;;46.53;33.22;;;11.10;99.90;;;;;;5040002;28;20037;-72
2022/03/23 08:42:22;;;;;;;46.65;33.50;;;11.20;99.90;;;;;;5052388;28;20053;-71
2022/03/23 08:44:47;;;;;;;48.55;33.00;;;11.40;99.90;;;;;;5052910;28;20513;-71
2022/03/23 08:47:13;;;;;;;49.58;32.85;;;11.40;99.90;;;;;;5052882;28;20051;-73
2022/03/23 08:49:39;;;;;;;50.30;33.10;;;11.50;99.90;;;;;;5041059;28;20049;-72
2022/03/23 08:52:06;;;;;;;42.38;30.40;;;11.60;99.90;;;;;;5038118;28;20041;-72
2022/03/23 08:54:31;;;;;;;48.03;32.88;;;11.70;99.90;;;;;;5034061;28;20052;-71
2022/03/23 08:56:57;;;;;;;46.42;29.95;;;11.80;99.90;;;;;;5037095;28;20041;-72
2022/03/23 08:59:23;;;;;;;43.50;28.30;;;12.00;99.90;;;;;;5047380;28;20128;-73
2022/03/23 09:01:48;;;;;;;42.33;29.95;;;12.10;99.90;;;;;;5040174;28;20041;-73
2022/03/23 09:04:14;;;;;;;42.80;29.73;;;12.20;99.90;;;;;;5038929;28;20103;-75
2022/03/23 09:06:40;;;;;;;42.28;30.40;;;12.30;99.90;;;;;;5038703;28;20155;-75
2022/03/23 09:09:06;;;;;;;38.05;28.85;;;12.40;99.90;;;;;;5045312;28;20060;-74
2022/03/23 09:11:32;;;;;;;45.38;29.83;;;12.60;99.90;;;;;;5041019;28;20048;-74
2022/03/23 09:13:58;;;;;;;41.40;29.48;;;12.60;99.90;;;;;;5038521;28;20132;-76
2022/03/23 09:16:24;;;;;;;47.63;32.13;;;12.70;99.90;;;;;;5034607;28;20056;-77
2022/03/23 09:18:49;;;;;;;42.20;29.98;;;12.90;99.90;;;;;;5047976;28;20052;-74
2022/03/23 09:21:16;;;;;;;44.63;29.83;;;13.00;99.90;;;;;;5032769;28;20042;-76
2022/03/23 09:23:42;;;;;;;40.10;29.45;;;13.00;99.90;;;;;;5039726;28;20825;-74
2022/03/23 09:26:09;;;;;;;44.10;30.08;;;13.20;99.90;;;;;;5031936;28;20136;-72
2022/03/23 09:28:35;;;;;;;41.40;29.77;;;13.30;99.90;;;;;;5031372;28;20156;-73
2022/03/23 09:31:01;;;;;;;41.25;27.13;;;13.40;99.90;;;;;;5032140;28;20120;-81
2022/03/23 09:33:28;;;;;;;40.00;27.60;;;13.60;99.90;;;;;;5032278;28;20601;-70
2022/03/23 09:35:54;;;;;;;42.13;25.88;;;13.60;99.90;;;;;;5037024;28;20098;-72
2022/03/23 09:38:20;;;;;;;33.42;24.40;;;13.80;99.90;;;;;;5040815;28;20137;-72
2022/03/23 09:40:50;;;;;;;37.70;25.90;;;13.80;99.90;;;;;;5030705;28;20055;-72
2022/03/23 09:43:19;;;;;;;33.22;22.83;;;13.80;99.90;;;;;;5030757;28;20049;-72
2022/03/23 09:45:47;;;;;;;40.47;24.35;;;13.90;99.90;;;;;;5030634;28;20045;-72
2022/03/23 09:48:20;;;;;;;48.70;24.77;;;14.00;99.90;;;;;;5030465;28;20045;-71
2022/03/23 09:50:50;;;;;;;35.17;24.08;;;14.10;99.90;;;;;;5031666;28;20186;-71
2022/03/23 09:53:16;;;;;;;32.25;22.35;;;14.20;99.90;;;;;;5031021;28;20095;-71
2022/03/23 09:55:43;;;;;;;34.97;24.00;;;14.30;99.90;;;;;;5030156;28;20049;-70
2022/03/23 09:58:10;;;;;;;28.20;22.23;;;14.40;99.90;;;;;;5032722;28;20041;-71
2022/03/23 10:00:41;;;;;;;30.77;23.20;;;14.40;98.80;;;;;;5032946;28;20037;-70
2022/03/23 10:03:06;;;;;;;32.90;21.70;;;14.50;98.60;;;;;;5032044;28;20055;-70
2022/03/23 10:05:54;;;;;;;30.23;22.17;;;14.60;98.40;;;;;;5031370;28;20128;-71
2022/03/23 10:08:35;;;;;;;29.27;21.58;;;14.70;93.90;;;;;;5032908;28;20168;-71
2022/03/23 10:11:38;;;;;;;32.17;23.13;;;14.70;96.80;;;;;;5030602;28;20050;-71
2022/03/23 10:14:26;;;;;;;27.30;21.05;;;14.80;90.40;;;;;;5031393;28;20537;-72
2022/03/23 10:17:29;;;;;;;30.42;20.40;;;14.90;90.60;;;;;;5030810;28;20493;-71
2022/03/23 10:19:55;;;;;;;26.95;19.73;;;15.00;86.70;;;;;;5032546;28;20041;-71
2022/03/23 10:22:26;;;;;;;32.33;22.48;;;15.00;87.20;;;;;;5031345;28;20199;-71
2022/03/23 10:24:52;;;;;;;24.67;19.17;;;15.10;74.20;;;;;;5032109;28;20049;-71
2022/03/23 10:27:17;;;;;;;24.13;18.38;;;15.20;76.00;;;;;;5032636;28;20050;-71
2022/03/23 10:29:52;;;;;;;25.00;17.67;;;15.30;75.80;;;;;;5030958;28;20056;-71
2022/03/23 10:32:20;;;;;;;27.95;16.98;;;15.30;70.10;;;;;;5030943;28;20495;-71
2022/03/23 10:34:47;;;;;;;22.40;16.10;;;15.40;71.30;;;;;;5032754;28;20053;-72
2022/03/23 10:37:20;;;;;;;23.60;17.23;;;15.50;71.80;;;;;;5029694;28;20416;-71
2022/03/23 10:39:48;;;;;;;19.48;15.38;;;15.50;66.50;;;;;;5030414;28;20045;-71
2022/03/23 10:42:16;;;;;;;22.65;14.23;;;15.60;66.70;;;;;;5031192;28;20452;-70
2022/03/23 10:44:44;;;;;;;23.40;14.90;;;15.60;65.30;;;;;;5030325;28;20084;-70
2022/03/23 10:47:24;;;;;;;24.90;17.52;;;15.70;65.10;;;;;;5032230;28;20076;-70
2022/03/23 10:49:50;;;;;;;19.55;15.52;;;15.80;61.70;;;;;;5032214;28;20041;-71
2022/03/23 10:52:18;;;;;;;29.60;15.57;;;15.80;61.70;;;;;;5030217;28;20509;-71
2022/03/23 10:55:05;;;;;;;20.02;14.93;;;15.90;63.40;;;;;;5032333;28;20057;-71
2022/03/23 10:57:51;;;;;;;18.90;15.25;;;16.00;59.10;;;;;;5035223;28;20037;-70
2022/03/23 11:00:31;;;;;;;26.63;17.15;;;16.10;61.20;;;;;;5034250;28;20056;-71
2022/03/23 11:02:57;;;;;;;24.25;15.35;;;16.10;62.90;;;;;;5035063;28;20484;-72
2022/03/23 11:05:34;;;;;;;19.55;15.18;;;16.10;61.20;;;;;;5034232;28;20057;-71
2022/03/23 11:08:13;;;;;;;19.42;14.18;;;16.10;57.10;;;;;;5035924;28;20045;-71
2022/03/23 11:16:24;;;;;;;21.50;13.98;;;16.30;59.30;;;;;;5041234;28;20400;-74
2022/03/23 11:19:07;;;;;;;;;;;16.40;59.50;;;;;;5038809;28;20053;-74
2022/03/23 11:21:33;;;;;;;18.70;12.10;;;16.50;57.40;;;;;;5042198;28;19921;-74
2022/03/23 11:23:59;;;;;;;17.05;13.15;;;16.60;60.40;;;;;;5035729;28;20045;-74
2022/03/23 11:26:27;;;;;;;22.10;13.60;;;16.50;59.00;;;;;;5033818;28;20053;-74
2022/03/23 11:28:56;;;;;;;19.85;12.55;;;16.50;58.20;;;;;;5054606;28;20053;-74
2022/03/23 11:31:24;;;;;;;19.00;10.98;;;16.60;59.00;;;;;;5038036;28;20043;-73
2022/03/23 11:33:52;;;;;;;24.38;12.45;;;16.60;58.20;;;;;;5045036;28;20038;-74
2022/03/23 11:36:19;;;;;;;25.13;13.18;;;16.70;58.40;;;;;;5035687;28;20052;-75
2022/03/23 11:38:51;;;;;;;28.80;13.10;;;16.70;59.00;;;;;;5041215;28;20128;-74
2022/03/23 11:41:19;;;;;;;18.15;12.05;;;16.80;57.90;;;;;;5039639;28;20084;-74
2022/03/23 11:43:44;;;;;;;20.02;11.77;;;16.80;58.00;;;;;;5034793;28;20099;-74
2022/03/23 11:46:11;;;;;;;18.25;12.85;;;16.90;58.70;;;;;;5046525;28;20052;-74
2022/03/23 11:48:58;;;;;;;20.40;13.38;;;17.00;58.60;;;;;;5036498;28;20042;-74
2022/03/23 11:51:54;;;;;;;18.75;11.13;;;17.10;56.30;;;;;;5035331;28;20131;-70
2022/03/23 11:58:00;;;;;;;21.35;11.00;;;17.10;55.30;;;;;;5034452;28;20053;-69
2022/03/23 12:00:27;;;;;;;25.92;11.40;;;17.20;53.90;;;;;;5044975;28;20044;-78
2022/03/23 12:02:57;;;;;;;15.85;12.13;;;17.20;56.90;;;;;;5038662;28;20044;-81
2022/03/23 12:05:27;;;;;;;20.42;10.85;;;17.20;56.40;;;;;;5044650;28;20511;-70
2022/03/23 12:07:53;;;;;;;25.98;13.13;;;17.30;58.10;;;;;;5054531;28;20041;-79
2022/03/23 12:10:24;;;;;;;22.63;13.38;;;17.90;56.70;;;;;;5051558;28;20052;-78
2022/03/23 12:12:50;;;;;;;25.88;13.38;;;17.30;54.90;;;;;;5043161;28;20052;-77
2022/03/23 12:15:22;;;;;;;19.60;12.80;;;17.30;55.80;;;;;;5041945;28;20400;-78
2022/03/23 12:17:54;;;;;;;25.17;13.85;;;17.40;56.70;;;;;;5032765;28;20069;-77
2022/03/23 12:20:31;;;;;;;24.08;12.27;;;17.40;55.90;;;;;;5034667;28;20396;-78
2022/03/23 12:23:11;;;;;;;19.48;11.77;;;17.40;56.10;;;;;;5049370;28;20060;-77
2022/03/23 12:25:40;;;;;;;21.40;12.90;;;17.50;55.80;;;;;;5033620;28;20052;-76
2022/03/23 12:28:36;;;;;;;26.08;13.27;;;17.60;55.90;;;;;;5049709;28;20045;-78
2022/03/23 12:31:08;;;;;;;21.05;11.52;;;17.70;55.30;;;;;;5032287;28;20132;-78
2022/03/23 12:33:54;;;;;;;;;;;17.70;56.90;;;;;;5033591;28;20041;-78
2022/03/23 12:39:39;;;;;;;17.25;8.02;;;17.90;55.40;;;;;;5033132;28;20132;-81
2022/03/23 12:42:11;;;;;;;17.13;9.10;;;17.90;53.10;;;;;;5049824;28;20045;-82
2022/03/23 12:44:37;;;;;;;15.65;8.88;;;17.90;54.70;;;;;;5033776;28;20046;-80
2022/03/23 12:47:21;;;;;;;19.45;9.43;;;17.90;55.50;;;;;;5049873;28;20133;-80
2022/03/23 12:58:12;;;;;;;17.13;9.70;;;18.10;53.20;;;;;;5032052;28;20140;-76
2022/03/23 13:00:45;;;;;;;17.67;9.75;;;18.10;53.50;;;;;;5051122;28;20041;-80
2022/03/23 13:03:11;;;;;;;19.88;10.05;;;18.10;52.70;;;;;;5053660;28;20091;-81
2022/03/23 13:05:58;;;;;;;21.10;11.93;;;18.10;54.30;;;;;;5051771;28;20141;-80
2022/03/23 13:08:27;;;;;;;21.35;12.32;;;18.10;54.50;;;;;;5045656;28;20095;-78
2022/03/23 13:11:07;;;;;;;18.90;12.63;;;18.10;55.20;;;;;;5038082;28;20412;-78
2022/03/23 13:13:37;;;;;;;17.90;10.82;;;18.10;55.00;;;;;;5031792;28;20377;-79